Flight Track Log - Related Links

Times and Time Zones

All times are in EST time to prevent confusion due to time zone crossing. See the ASA401 flight status page for this flight to view local times or setup timezone preferences in your user account.

Time Position Orientation Groundspeed Altitude Reporting Facility
EST Latitude Longitude Course Direction KTS MPH feet Rate Location/Type
Tue 09:58:51 PM 37.3833 -121.9500 322° Northwest 165 190 1,000  Level Northern Cal TRACON
Tue 09:59:45 PM 37.4167 -121.9833 322° Northwest 214 246 2,800 1,833 Climbing Northern Cal TRACON
Tue 10:00:39 PM 37.4500 -121.9333 50° Northeast 260 299 4,300 1,800 Climbing Northern Cal TRACON
Tue 10:01:45 PM 37.4000 -121.8667 133° Southeast 269 310 6,400 2,059 Climbing Northern Cal TRACON
Tue 10:02:21 PM 37.3731 -121.8322 135° Southeast 267 307 7,800 2,907 Climbing Oakland Center
Tue 10:03:22 PM 37.2986 -121.8450 188° South 270 311 11,100 2,361 Climbing Oakland Center
Tue 10:04:23 PM 37.3311 -121.9261 297° West 310 357 12,600 1,770 Climbing Oakland Center
Tue 10:05:24 PM 37.4367 -121.9361 356° North 376 433 14,700 2,557 Climbing Oakland Center
Tue 10:06:25 PM 37.5439 -121.9486 355° North 387 445 17,800 3,049 Climbing Oakland Center
Tue 10:07:26 PM 37.6458 -121.9603 355° North 375 432 20,900 1,983 Climbing Oakland Center
Tue 10:08:26 PM 37.7511 -121.9728 355° North 386 444 21,800 1,289 Climbing Oakland Center
Tue 10:09:27 PM 37.8683 -121.9844 356° North 421 484 23,500 1,869 Climbing Oakland Center
Tue 10:10:28 PM 37.9878 -121.9978 355° North 431 496 25,600 1,820 Climbing Oakland Center
Tue 10:11:29 PM 38.1114 -122.0122 355° North 444 511 27,200 1,918 Climbing Oakland Center
Tue 10:12:30 PM 38.2325 -122.0269 355° North 444 511 29,500 2,164 Climbing Oakland Center
Tue 10:13:31 PM 38.3753 -122.0431 355° North 436 502 31,600 1,967 Climbing Oakland Center
Tue 10:14:32 PM 38.4881 -122.0653 351° North 419 482 33,500 1,180 Climbing Oakland Center
Tue 10:15:33 PM 38.5939 -122.1061 343° North 402 463 34,000 246 Climbing Oakland Center
Tue 10:16:34 PM 38.7161 -122.1139 357° North 420 483 34,000  Level Oakland Center
Tue 10:17:35 PM 38.8333 -122.1272 355° North 420 483 34,000  Level Oakland Center
Tue 10:18:36 PM 38.9506 -122.1403 355° North 420 483 34,000  Level Oakland Center
Tue 10:19:37 PM 39.0672 -122.1539 355° North 420 483 34,000  Level Oakland Center
Tue 10:20:38 PM 39.1844 -122.1667 355° North 421 484 34,000  Level Oakland Center
Tue 10:21:39 PM 39.3011 -122.1797 355° North 420 483 34,000  Level Oakland Center
Tue 10:22:40 PM 39.4181 -122.1933 355° North 421 484 34,000  Level Oakland Center
Tue 10:23:41 PM 39.5269 -122.2047 355° North 421 484 34,000  Level Oakland Center
Tue 10:24:42 PM 39.6678 -122.2200 355° North 424 488 34,000  Level Oakland Center
Tue 10:25:43 PM 39.7847 -122.2331 355° North 422 486 34,000  Level Oakland Center
Tue 10:26:44 PM 39.9014 -122.2458 355° North 422 486 34,000  Level Oakland Center
Tue 10:27:45 PM 40.0181 -122.2589 355° North 423 487 34,000  Level Oakland Center
Tue 10:28:46 PM 40.1331 -122.2706 356° North 422 486 34,000  Level Oakland Center
Tue 10:29:47 PM 40.2422 -122.2831 355° North 425 489 34,000  Level Oakland Center
Tue 10:30:48 PM 40.3831 -122.2992 355° North 425 489 34,000  Level Oakland Center
Tue 10:31:49 PM 40.4992 -122.3133 355° North 422 486 34,000  Level Oakland Center
Tue 10:32:50 PM 40.6183 -122.3247 356° North 430 495 34,000  Level Oakland Center
Tue 10:33:51 PM 40.7367 -122.3375 355° North 428 493 34,000  Level Oakland Center
Tue 10:34:52 PM 40.8547 -122.3508 355° North 426 490 34,000  Level Oakland Center
Tue 10:35:53 PM 40.9725 -122.3647 355° North 425 489 34,000  Level Oakland Center
Tue 10:36:54 PM 41.0922 -122.3775 355° North 430 495 34,000  Level Oakland Center
Tue 10:37:56 PM 41.2128 -122.3917 355° North 433 498 34,000  Level Oakland Center
Tue 10:38:57 PM 41.3344 -122.4069 355° North 437 503 34,000  Level Oakland Center
Tue 10:39:36 PM 41.4206 -122.4192 354° North 439 505 34,000  Level Seattle Center
Tue 10:40:36 PM 41.5431 -122.4328 355° North 440 506 34,000  Level Seattle Center
Tue 10:41:37 PM 41.6639 -122.4469 355° North 436 502 34,000  Level Seattle Center
Tue 10:42:38 PM 41.7839 -122.4614 355° North 432 497 34,000  Level Seattle Center
Tue 10:43:39 PM 41.9056 -122.4758 355° North 435 501 34,000  Level Seattle Center
Tue 10:44:40 PM 42.0283 -122.4892 355° North 440 506 34,000  Level Seattle Center
Tue 10:45:41 PM 42.1525 -122.5025 355° North 448 516 34,000  Level Seattle Center
Tue 10:46:41 PM 42.2722 -122.5172 355° North 435 501 34,000  Level Seattle Center
Tue 10:47:42 PM 42.3922 -122.5328 355° North 432 497 34,000  Level Seattle Center
Tue 10:48:43 PM 42.5111 -122.5464 355° North 429 494 34,000  Level Seattle Center
Tue 10:49:44 PM 42.6289 -122.5608 355° North 424 488 34,000  Level Seattle Center
Tue 10:50:45 PM 42.7625 -122.5769 355° North 433 498 34,000  Level Seattle Center
Tue 10:51:46 PM 42.8828 -122.5919 355° North 436 502 34,000  Level Seattle Center
Tue 10:52:46 PM 43.0028 -122.6075 355° North 440 506 34,000  Level Seattle Center
Tue 10:53:47 PM 43.1231 -122.6217 355° North 434 499 34,000  Level Seattle Center
Tue 10:54:48 PM 43.2442 -122.6372 355° North 437 503 34,000  Level Seattle Center
Tue 10:55:49 PM 43.3633 -122.6528 355° North 434 499 34,000  Level Seattle Center
Tue 10:56:50 PM 43.4825 -122.6678 355° North 434 499 34,000  Level Seattle Center
Tue 10:57:51 PM 43.6014 -122.6822 355° North 436 502 34,000  Level Seattle Center
Tue 10:58:52 PM 43.7186 -122.6978 355° North 425 489 34,000  Level Seattle Center
Tue 10:59:52 PM 43.8358 -122.7119 355° North 426 490 34,000  Level Seattle Center
Tue 11:00:53 PM 43.9772 -122.7308 355° North 427 491 34,000 -295 Level Seattle Center
Tue 11:01:54 PM 44.0964 -122.7456 355° North 433 498 33,400 -1,770 Descending Seattle Center
Tue 11:02:55 PM 44.2197 -122.7478 359° North 459 528 30,400 -3,074 Descending Seattle Center
Tue 11:03:55 PM 44.3447 -122.7317 North 466 536 27,200 -3,124 Descending Seattle Center
Tue 11:04:56 PM 44.4697 -122.7211 North 458 527 24,100 -3,148 Descending Seattle Center
Tue 11:05:57 PM 44.5856 -122.7097 North 433 498 20,800 -3,098 Descending Seattle Center
Tue 11:06:58 PM 44.7008 -122.6992 North 422 486 17,800 -2,667 Descending Seattle Center
Tue 11:07:45 PM 44.7894 -122.6908 North 374 430 16,000 -2,100 Descending Seattle Center
Tue 11:07:58 PM 44.8047 -122.6900 North 393 452 15,700 -2,500 Descending Seattle Center
Tue 11:08:33 PM 44.8636 -122.6825 North 339 390 14,000 -2,656 Descending Seattle Center
Tue 11:08:59 PM 44.8975 -122.6789 North 358 412 13,000 -2,361 Descending Seattle Center
Tue 11:09:34 PM 44.9636 -122.6728 North 321 369 11,600 -2,164 Descending Seattle Center
Tue 11:10:00 PM 44.9967 -122.6700 North 327 376 10,800 -1,377 Descending Seattle Center
Tue 11:10:35 PM 45.0483 -122.6631 North 308 354 10,200 -1,082 Descending Seattle Center
Tue 11:11:01 PM 45.0833 -122.6525 12° North 290 334 9,700 -1,100 Descending Seattle Center
Tue 11:11:35 PM 45.1217 -122.6303 22° Northeast 272 313 9,100 -1,377 Descending Seattle Center
Tue 11:12:02 PM 45.1525 -122.6094 25° Northeast 273 314 8,300 -1,672 Descending Seattle Center
Tue 11:12:36 PM 45.1889 -122.5878 23° Northeast 266 306 7,400 -1,900 Descending Seattle Center
Tue 11:13:02 PM 45.2219 -122.5678 23° Northeast 272 313 6,400 -2,066 Descending Seattle Center
Tue 11:13:37 PM 45.2586 -122.5469 22° Northeast 270 311 5,300 -1,869 Descending Seattle Center
Tue 11:14:03 PM 45.2906 -122.5272 23° Northeast 269 310 4,500 -1,475 Descending Seattle Center
Tue 11:14:38 PM 45.3319 -122.5017 23° Northeast 268 308 3,800 -984 Descending Seattle Center
Tue 11:15:04 PM 45.3575 -122.4867 22° Northeast 264 304 3,500 -885 Descending Seattle Center
Tue 11:15:39 PM 45.3942 -122.4669 21° North 244 281 2,900 -689 Descending Seattle Center
Tue 11:16:05 PM 45.4233 -122.4475 25° Northeast 240 276 2,800 -400 Descending Seattle Center
Tue 11:16:39 PM 45.4558 -122.4294 21° North 239 275 2,500 -300 Descending Seattle Center
Tue 11:17:05 PM 45.4861 -122.4200 12° North 236 272 2,500  Level Seattle Center
Tue 11:17:40 PM 45.5125 -122.4308 344° North 191 220 2,500 -295 Level Seattle Center
Tue 11:18:06 PM 45.5297 -122.4517 320° Northwest 182 209 2,200 -909 Descending Seattle Center
Tue 11:18:46 PM 45.5439 -122.4889 299° West 146 168 1,500 -885 Descending Seattle Center
Tue 11:19:07 PM 45.5494 -122.5036 298° West 153 176 1,300 -590 Descending Seattle Center
Tue 11:19:47 PM 45.5597 -122.5347 295° West 127 146 900 -689 Descending Seattle Center
Tue 11:20:08 PM 45.5669 -122.5492 306° West 135 155 600 -857 Descending Seattle Center
Tue 11:23:00 PM 45.5833 -122.5833 311° West  Level FlightAware Approximate
Tue 11:30:00 PM 45.5887 -122.5969 311° West  Level Estimated
Tue 11:31:00 PM 45.5887 -122.5969 311° West  Level Estimated

Login

Don't have an account? Register now (free) for customized features, flight alerts, and more!